Estación Meteorológica Peña el Pijo (Robertgarden) [ 08/15/18 18:33:27 CEST ]

Fecha Hora Presion(HPa) Temp (°C) Humedad % Rocio (°C) Viento ( m/s) Direccion Lluvia 1Hora(mm) Lluvia 24H(mm) LLuvia Total(mm)
2018-Aug-11 01:01:56 1016.900 16.4 87 14.2       12.43 287.49
2018-Aug-11 02:01:42 1016.500 15.9 88 13.9       12.43 287.49
2018-Aug-11 03:01:20 1016.200 15.2 88 13.2       12.43 287.49
2018-Aug-11 04:01:16 1016.300 14.6 89 12.8       12.43 287.49
2018-Aug-11 05:01:54 1016.300 14.3 89 12.5       12.43 287.49
2018-Aug-11 06:01:22 1016.100 13.9 89 12.1       12.43 287.49
2018-Aug-11 07:01:47 1016.200 13.3 89 11.5       12.43 287.49
2018-Aug-11 08:01:50 1016.100 13.6 90 12.0       12.43 287.49
2018-Aug-11 09:01:51 1016.500 17.2 92 15.9       12.43 287.49
2018-Aug-11 10:01:54 1016.300 20.7 89 18.8       12.43 287.49
2018-Aug-11 11:01:44 1016.300 24.4 67 17.9       12.43 287.49
2018-Aug-11 12:01:52 1016.500 27.8 58 18.7       12.43 287.49
2018-Aug-11 13:01:43 1016.500 27.9 50 16.5 5.2 SSW   12.43 287.49
2018-Aug-11 14:01:37 1015.700 29.8 48 17.6       12.43 287.49
2018-Aug-11 15:01:41 1015.200 30.6 46 17.6       12.43 287.49
2018-Aug-11 16:01:47 1014.700 30.7 43 16.7       12.43 287.49
2018-Aug-11 17:01:53 1014.200 27.8 48 15.7       12.43 287.49
2018-Aug-11 18:01:43 1013.900 27.7 50 16.3       1.55 287.49
2018-Aug-11 19:02:03 1013.400 27.3 53 16.8       0.51 287.49
2018-Aug-11 20:01:40 1013.700 25.3 56 15.9         287.49
2018-Aug-11 21:01:43 1013.800 23.4 60 15.2         287.49
2018-Aug-11 22:01:33 1014.100 21.8 65 14.9         287.49
2018-Aug-11 23:01:32 1014.600 21.0 68 14.8         287.49

Temperatura Máxima:30°    Temperatura Mínima:13°
Presión Máxima:1016.900 Hpa    Presión Mínima:1013.400 Hpa


Volver